Time;durP1;ratioP1;P1;durP2;ratioP2;P2;SDS_P1;SDS_P2;PMS_P1;PMS_P2;Temp;Humidity;BMP_temperature;BMP_pressure;BME280_temperature;BME280_humidity;BME280_pressure;Samples;Min_cycle;Max_cycle;Signal;HPM_P1;HPM_P2
2021/12/04 00:01:10;;;;;;;14.45;13.00;;;;;;;;;;4916441;28;99193;-70
2021/12/04 00:03:38;;;;;;;16.13;14.35;;;;;;;;;;4916022;28;99521;-70
2021/12/04 00:06:49;;;;;;;15.25;13.50;;;;;;;;;;4916654;28;97723;-70
2021/12/04 00:09:01;;;;;;;14.45;12.95;;;;;;;;;;4910717;28;99328;-71
2021/12/04 00:11:27;;;;;;;14.45;13.05;;;;;;;;;;4919141;28;99747;-71
2021/12/04 00:13:53;;;;;;;13.95;12.55;;;;;;;;;;4915391;28;99588;-71
2021/12/04 00:16:20;;;;;;;15.05;13.43;;;;;;;;;;4915792;28;99727;-71
2021/12/04 00:18:46;;;;;;;14.90;13.40;;;;;;;;;;4915675;28;98401;-70
2021/12/04 00:21:13;;;;;;;14.80;13.30;;;;;;;;;;4916205;28;99596;-71
2021/12/04 00:23:39;;;;;;;14.75;13.10;;;;;;;;;;4915749;28;99799;-71
2021/12/04 00:26:05;;;;;;;14.80;12.70;;;;;;;;;;4915911;28;98428;-70
2021/12/04 00:28:32;;;;;;;14.95;13.35;;;;;;;;;;4915988;28;99022;-71
2021/12/04 00:31:04;;;;;;;15.02;13.43;;;;;;;;;;4916057;28;99256;-70
2021/12/04 00:33:32;;;;;;;14.82;12.98;;;;;;;;;;4918687;28;98518;-71
2021/12/04 00:36:01;;;;;;;16.20;13.68;;;;;;;;;;4915533;28;99911;-71
2021/12/04 00:49:19;;;;;;;17.08;13.75;;;;;;;;;;4915740;28;99273;-71
2021/12/04 00:51:50;;;;;;;16.50;14.13;;;;;;;;;;4914186;28;99749;-71
2021/12/04 00:54:17;;;;;;;15.32;13.50;;;;;;;;;;4918369;28;98422;-70
2021/12/04 00:56:44;;;;;;;17.17;14.60;;;;;;;;;;4915528;28;98916;-71
2021/12/04 00:59:11;;;;;;;19.17;14.80;;;;;;;;;;4915450;28;98388;-70
2021/12/04 01:01:39;;;;;;;18.00;14.25;;;;;;;;;;4915461;28;99816;-71
2021/12/04 01:04:08;;;;;;;15.40;13.40;;;;;;;;;;4914596;28;100362;-70
2021/12/04 01:06:35;;;;;;;16.42;14.18;;;;;;;;;;4915146;28;98429;-72
2021/12/04 01:09:01;;;;;;;15.23;13.23;;;;;;;;;;4915138;28;99606;-71
2021/12/04 01:11:28;;;;;;;16.60;13.55;;;;;;;;;;4914902;28;99197;-71
2021/12/04 01:13:54;;;;;;;16.35;13.90;;;;;;;;;;4915104;28;98433;-70
2021/12/04 01:16:20;;;;;;;16.35;14.27;;;;;;;;;;4918142;28;99801;-70
2021/12/04 01:18:47;;;;;;;15.98;13.80;;;;;;;;;;4915159;28;98493;-70
2021/12/04 01:21:13;;;;;;;17.38;14.05;;;;;;;;;;4915244;28;99500;-71
2021/12/04 01:23:39;;;;;;;14.77;12.93;;;;;;;;;;4914761;28;99586;-70
2021/12/04 01:26:06;;;;;;;17.80;13.10;;;;;;;;;;4914971;28;98323;-71
2021/12/04 01:28:32;;;;;;;16.10;12.77;;;;;;;;;;4914467;28;99553;-71
2021/12/04 01:30:59;;;;;;;15.32;12.95;;;;;;;;;;4914611;28;99547;-70
2021/12/04 01:33:25;;;;;;;16.42;13.50;;;;;;;;;;4915018;28;98613;-71
2021/12/04 01:35:52;;;;;;;14.65;12.77;;;;;;;;;;4914531;28;99535;-71
2021/12/04 01:38:18;;;;;;;15.77;12.98;;;;;;;;;;4917853;28;99630;-70
2021/12/04 01:40:45;;;;;;;17.27;13.15;;;;;;;;;;4914826;28;99533;-72
2021/12/04 01:43:11;;;;;;;15.63;12.35;;;;;;;;;;4914429;28;99748;-71
2021/12/04 01:45:38;;;;;;;15.00;12.52;;;;;;;;;;4915193;28;97515;-70
2021/12/04 01:48:04;;;;;;;15.63;13.38;;;;;;;;;;4914493;28;99605;-70
2021/12/04 01:50:32;;;;;;;17.90;13.27;;;;;;;;;;4913839;28;99355;-70
2021/12/04 01:52:59;;;;;;;17.92;14.27;;;;;;;;;;4913950;28;99178;-70
2021/12/04 01:55:26;;;;;;;17.10;13.65;;;;;;;;;;4914798;28;100418;-70
2021/12/04 01:57:53;;;;;;;16.40;13.10;;;;;;;;;;4914328;28;99874;-70
2021/12/04 02:00:19;;;;;;;17.50;13.88;;;;;;;;;;4917796;28;98539;-70
2021/12/04 02:02:46;;;;;;;20.13;13.32;;;;;;;;;;4913446;28;99731;-70
2021/12/04 02:05:12;;;;;;;17.83;14.10;;;;;;;;;;4914117;28;98501;-70
2021/12/04 02:07:39;;;;;;;21.85;14.18;;;;;;;;;;4914435;28;99432;-70
2021/12/04 02:10:06;;;;;;;21.50;14.93;;;;;;;;;;4914584;28;99179;-70
2021/12/04 02:12:32;;;;;;;22.77;15.70;;;;;;;;;;4913782;28;98440;-70
2021/12/04 02:14:58;;;;;;;20.88;15.05;;;;;;;;;;4911277;28;99571;-69
2021/12/04 02:17:32;;;;;;;21.50;15.00;;;;;;;;;;4894185;28;100977;-70
2021/12/04 02:19:59;;;;;;;24.80;15.82;;;;;;;;;;4895089;28;99334;-70
2021/12/04 02:22:27;;;;;;;26.55;15.98;;;;;;;;;;4897645;28;100336;-69
2021/12/04 02:24:53;;;;;;;25.00;16.30;;;;;;;;;;4894988;28;98448;-70
2021/12/04 02:27:19;;;;;;;25.48;16.65;;;;;;;;;;4895125;28;99719;-70
2021/12/04 02:29:47;;;;;;;27.77;16.80;;;;;;;;;;4894716;28;99727;-70
2021/12/04 02:32:15;;;;;;;29.75;18.30;;;;;;;;;;4894521;28;99234;-70
2021/12/04 02:34:41;;;;;;;30.35;17.45;;;;;;;;;;4895304;28;100135;-70
2021/12/04 02:37:08;;;;;;;38.60;19.13;;;;;;;;;;4894388;28;99658;-70
2021/12/04 02:39:37;;;;;;;26.77;18.20;;;;;;;;;;4894936;28;98403;-70
2021/12/04 02:42:06;;;;;;;32.15;17.42;;;;;;;;;;4877169;28;100692;-70
2021/12/04 02:44:37;;;;;;;35.05;19.10;;;;;;;;;;4897601;28;99754;-69
2021/12/04 02:47:04;;;;;;;60.10;21.40;;;;;;;;;;4894302;28;98943;-70
2021/12/04 02:49:31;;;;;;;41.20;20.70;;;;;;;;;;4894652;28;98773;-70
2021/12/04 02:52:01;;;;;;;42.95;20.30;;;;;;;;;;4894642;28;98410;-70
2021/12/04 02:54:29;;;;;;;43.37;22.17;;;;;;;;;;4894630;28;99601;-70
2021/12/04 02:56:55;;;;;;;61.58;22.73;;;;;;;;;;4894290;28;99153;-69
2021/12/04 02:59:21;;;;;;;82.53;24.38;;;;;;;;;;4894620;28;98443;-71
2021/12/04 03:01:52;;;;;;;70.72;24.90;;;;;;;;;;4894636;28;99038;-70
2021/12/04 03:04:19;;;;;;;80.43;24.37;;;;;;;;;;4897316;28;99782;-69
2021/12/04 03:06:46;;;;;;;70.93;24.80;;;;;;;;;;4893944;28;99723;-70
2021/12/04 03:09:14;;;;;;;67.13;23.88;;;;;;;;;;4876782;28;100535;-70
2021/12/04 03:11:40;;;;;;;58.15;23.92;;;;;;;;;;4894331;28;98385;-69
2021/12/04 03:14:07;;;;;;;63.63;24.60;;;;;;;;;;4892983;28;99092;-70
2021/12/04 03:16:34;;;;;;;74.15;25.05;;;;;;;;;;4896366;28;99238;-70
2021/12/04 03:19:01;;;;;;;66.55;24.70;;;;;;;;;;4896906;28;98234;-70
2021/12/04 03:21:28;;;;;;;73.07;25.52;;;;;;;;;;4896647;28;99057;-70
2021/12/04 03:26:23;;;;;;;61.28;23.60;;;;;;;;;;4899785;28;98356;-71
2021/12/04 03:28:51;;;;;;;59.30;24.40;;;;;;;;;;4896479;28;99640;-70
2021/12/04 03:42:21;;;;;;;56.85;22.58;;;;;;;;;;4896610;28;99936;-70
2021/12/04 03:44:48;;;;;;;93.05;25.00;;;;;;;;;;4896208;28;99663;-69
2021/12/04 03:47:15;;;;;;;111.07;26.75;;;;;;;;;;4896180;28;98431;-70
2021/12/04 03:49:41;;;;;;;102.65;26.35;;;;;;;;;;4899668;28;99492;-71
2021/12/04 03:52:08;;;;;;;79.10;24.90;;;;;;;;;;4896206;28;98351;-70
2021/12/04 03:54:35;;;;;;;70.03;25.17;;;;;;;;;;4896251;28;99590;-70
2021/12/04 03:57:05;;;;;;;110.00;27.50;;;;;;;;;;4895417;28;101050;-70
2021/12/04 03:59:32;;;;;;;98.47;26.27;;;;;;;;;;4896213;28;98391;-70
2021/12/04 04:01:58;;;;;;;122.03;26.13;;;;;;;;;;4895998;28;99216;-70
2021/12/04 04:04:25;;;;;;;84.93;26.20;;;;;;;;;;4895723;28;100214;-70
2021/12/04 04:06:51;;;;;;;102.20;26.77;;;;;;;;;;4896269;28;98568;-70
2021/12/04 04:09:18;;;;;;;121.57;27.55;;;;;;;;;;4895873;28;99981;-70
2021/12/04 04:11:46;;;;;;;141.77;28.50;;;;;;;;;;4899023;28;99884;-70
2021/12/04 04:14:13;;;;;;;106.70;26.40;;;;;;;;;;4858663;28;1116319;-70
2021/12/04 04:16:40;;;;;;;93.43;26.23;;;;;;;;;;4896131;28;99407;-70
2021/12/04 04:19:07;;;;;;;115.25;27.75;;;;;;;;;;4896929;28;98439;-70
2021/12/04 04:21:41;;;;;;;120.85;27.50;;;;;;;;;;4896240;28;99867;-70
2021/12/04 04:24:08;;;;;;;73.80;27.10;;;;;;;;;;4896537;28;100158;-70
2021/12/04 04:26:36;;;;;;;111.97;26.67;;;;;;;;;;4896582;28;98366;-70
2021/12/04 04:29:04;;;;;;;127.07;28.13;;;;;;;;;;4896306;28;99573;-71
2021/12/04 04:31:31;;;;;;;112.80;27.77;;;;;;;;;;4896441;28;99046;-71
2021/12/04 04:34:03;;;;;;;119.57;28.58;;;;;;;;;;4899697;28;98516;-70
2021/12/04 04:58:40;;;;;;;143.27;29.05;;;;;;;;;;4899091;28;99465;-70
2021/12/04 05:12:02;;;;;;;107.15;27.40;;;;;;;;;;4896100;28;99477;-70
2021/12/04 05:14:28;;;;;;;151.20;29.65;;;;;;;;;;4894807;28;100914;-70
2021/12/04 05:17:16;;;;;;;181.93;31.63;;;;;;;;;;4895882;28;99615;-70
2021/12/04 05:19:45;;;;;;;158.02;28.55;;;;;;;;;;4898674;28;99120;-70
2021/12/04 05:22:13;;;;;;;189.98;31.52;;;;;;;;;;4896295;28;99226;-70
2021/12/04 05:24:40;;;;;;;104.90;28.38;;;;;;;;;;4895977;28;99759;-70
2021/12/04 05:27:07;;;;;;;223.43;30.58;;;;;;;;;;4895524;28;99686;-70
2021/12/04 05:29:39;;;;;;;96.30;26.77;;;;;;;;;;4895266;28;98430;-71
2021/12/04 05:32:05;;;;;;;89.40;28.02;;;;;;;;;;4896187;28;99756;-70
2021/12/04 05:34:34;;;;;;;160.68;27.92;;;;;;;;;;4895390;28;100279;-70
2021/12/04 05:37:01;;;;;;;101.38;27.90;;;;;;;;;;4895534;28;98435;-70
2021/12/04 05:39:27;;;;;;;130.25;28.33;;;;;;;;;;4894928;28;99932;-70
2021/12/04 05:41:53;;;;;;;206.50;28.98;;;;;;;;;;4898528;28;99748;-71
2021/12/04 05:44:24;;;;;;;240.40;32.58;;;;;;;;;;4895441;28;99572;-70
2021/12/04 05:47:07;;;;;;;249.07;31.02;;;;;;;;;;4895207;28;100149;-70
2021/12/04 05:57:35;;;;;;;122.55;27.25;;;;;;;;;;4895886;28;97934;-71
2021/12/04 06:00:03;;;;;;;217.75;30.10;;;;;;;;;;4895529;28;98720;-71
2021/12/04 06:02:29;;;;;;;87.28;25.90;;;;;;;;;;4894167;28;99676;-71
2021/12/04 06:04:56;;;;;;;194.43;28.88;;;;;;;;;;4898053;28;99236;-72
2021/12/04 06:07:22;;;;;;;177.13;28.58;;;;;;;;;;4894629;28;100379;-71
2021/12/04 06:09:48;;;;;;;186.90;28.70;;;;;;;;;;4895252;28;98747;-71
2021/12/04 06:12:15;;;;;;;176.23;29.13;;;;;;;;;;4894994;28;99718;-71
2021/12/04 06:14:45;;;;;;;155.75;28.77;;;;;;;;;;4894861;28;99683;-70
2021/12/04 06:17:12;;;;;;;160.65;28.35;;;;;;;;;;4895031;28;98925;-71
2021/12/04 06:22:37;;;;;;;214.82;29.58;;;;;;;;;;4895062;28;98827;-72
2021/12/04 06:25:05;;;;;;;152.18;26.80;;;;;;;;;;4895053;28;98536;-71
2021/12/04 06:27:31;;;;;;;245.80;29.67;;;;;;;;;;4897927;28;100194;-71
2021/12/04 06:29:57;;;;;;;176.98;28.42;;;;;;;;;;4894272;28;99187;-72
2021/12/04 06:32:25;;;;;;;233.00;30.55;;;;;;;;;;4894690;28;100298;-72
2021/12/04 06:34:52;;;;;;;199.10;30.45;;;;;;;;;;4894590;28;99738;-71
2021/12/04 06:37:18;;;;;;;150.70;28.20;;;;;;;;;;4895015;28;98404;-71
2021/12/04 06:39:45;;;;;;;227.52;29.80;;;;;;;;;;4895006;28;100114;-71
2021/12/04 06:42:11;;;;;;;245.27;30.52;;;;;;;;;;4894514;28;99647;-71
2021/12/04 06:44:37;;;;;;;244.55;30.85;;;;;;;;;;4877180;28;98424;-71
2021/12/04 06:47:04;;;;;;;228.23;33.17;;;;;;;;;;4895195;28;99043;-71
2021/12/04 06:49:35;;;;;;;267.60;33.03;;;;;;;;;;4896397;28;100297;-71
2021/12/04 06:52:05;;;;;;;186.53;29.00;;;;;;;;;;4894760;28;99752;-70
2021/12/04 06:54:36;;;;;;;202.82;29.05;;;;;;;;;;4893804;28;99794;-71
2021/12/04 06:57:07;;;;;;;198.85;31.02;;;;;;;;;;4894462;28;98307;-72
2021/12/04 06:59:34;;;;;;;210.48;30.00;;;;;;;;;;4894562;28;99620;-71
2021/12/04 07:02:00;;;;;;;215.48;30.08;;;;;;;;;;4894302;28;99929;-71
2021/12/04 07:04:34;;;;;;;237.90;33.00;;;;;;;;;;4894590;28;99369;-71
2021/12/04 07:07:02;;;;;;;196.68;29.02;;;;;;;;;;4894522;28;99508;-70
2021/12/04 07:09:28;;;;;;;233.95;33.42;;;;;;;;;;4894025;28;99668;-70
2021/12/04 07:11:54;;;;;;;176.02;28.77;;;;;;;;;;4897529;28;97720;-70
2021/12/04 07:14:21;;;;;;;130.65;26.55;;;;;;;;;;4893719;28;99899;-70
2021/12/04 07:16:47;;;;;;;118.07;27.80;;;;;;;;;;4894289;28;98558;-69
2021/12/04 07:19:14;;;;;;;146.10;28.05;;;;;;;;;;4893843;28;100404;-69
2021/12/04 07:21:40;;;;;;;110.07;28.38;;;;;;;;;;4894019;28;99709;-71
2021/12/04 07:24:07;;;;;;;119.78;26.23;;;;;;;;;;4894396;28;98444;-74
2021/12/04 07:26:34;;;;;;;142.35;27.60;;;;;;;;;;4893951;28;99453;-74
2021/12/04 07:29:00;;;;;;;112.50;26.92;;;;;;;;;;4894079;28;99662;-75
2021/12/04 07:31:26;;;;;;;119.05;27.42;;;;;;;;;;4897452;28;98290;-72
2021/12/04 07:33:58;;;;;;;65.30;22.90;;;;;;;;;;4893987;28;100576;-74
2021/12/04 07:36:24;;;;;;;102.97;23.83;;;;;;;;;;4894598;28;97802;-72
2021/12/04 07:38:51;;;;;;;121.22;24.70;;;;;;;;;;4893756;28;98760;-73
2021/12/04 07:41:17;;;;;;;163.20;28.55;;;;;;;;;;4893840;28;99689;-72
2021/12/04 07:43:44;;;;;;;109.93;24.98;;;;;;;;;;4893510;28;99305;-72
2021/12/04 07:46:10;;;;;;;104.03;25.33;;;;;;;;;;4894009;28;100222;-72
2021/12/04 07:48:37;;;;;;;99.05;24.60;;;;;;;;;;4893633;28;99699;-71
2021/12/04 07:51:04;;;;;;;99.78;26.60;;;;;;;;;;4894059;28;98453;-70
2021/12/04 07:53:31;;;;;;;105.72;26.95;;;;;;;;;;4896289;28;99604;-73
2021/12/04 07:55:58;;;;;;;106.32;26.88;;;;;;;;;;4893661;28;98426;-72
2021/12/04 07:58:24;;;;;;;73.78;24.92;;;;;;;;;;4893792;28;99583;-71
2021/12/04 08:00:51;;;;;;;90.10;25.20;;;;;;;;;;4894913;28;99357;-71
2021/12/04 08:03:17;;;;;;;104.80;26.40;;;;;;;;;;4897124;28;98438;-73
2021/12/04 08:05:46;;;;;;;87.30;23.80;;;;;;;;;;4897087;28;99378;-74
2021/12/04 08:08:12;;;;;;;61.70;23.98;;;;;;;;;;4895906;28;100631;-72
2021/12/04 08:10:39;;;;;;;113.78;26.02;;;;;;;;;;4896969;28;98430;-70
2021/12/04 08:13:05;;;;;;;88.43;24.05;;;;;;;;;;4896909;28;99050;-71
2021/12/04 08:15:33;;;;;;;114.70;25.58;;;;;;;;;;4899960;28;99720;-71
2021/12/04 08:17:59;;;;;;;87.47;25.17;;;;;;;;;;4896810;28;99445;-71
2021/12/04 08:20:26;;;;;;;112.60;27.17;;;;;;;;;;4896579;28;99757;-71
2021/12/04 08:22:52;;;;;;;78.45;24.33;;;;;;;;;;4896391;28;98415;-70
2021/12/04 08:25:19;;;;;;;108.93;25.92;;;;;;;;;;4897264;28;99420;-70
2021/12/04 08:27:46;;;;;;;93.50;25.70;;;;;;;;;;4896297;28;99517;-70
2021/12/04 08:30:16;;;;;;;111.90;26.27;;;;;;;;;;4896820;28;98436;-70
2021/12/04 08:32:43;;;;;;;117.30;25.88;;;;;;;;;;4896195;28;99765;-70
2021/12/04 08:35:10;;;;;;;101.10;27.60;;;;;;;;;;4896062;28;99767;-70
2021/12/04 08:37:37;;;;;;;81.07;24.33;;;;;;;;;;4899882;28;98433;-71
2021/12/04 08:40:09;;;;;;;115.25;26.60;;;;;;;;;;4896125;28;100054;-70
2021/12/04 08:42:35;;;;;;;97.15;25.27;;;;;;;;;;4879643;28;98494;-70
2021/12/04 08:45:02;;;;;;;111.28;26.63;;;;;;;;;;4896394;28;99669;-70
2021/12/04 08:47:29;;;;;;;88.07;26.98;;;;;;;;;;4896180;28;100010;-70
2021/12/04 08:49:55;;;;;;;85.88;25.42;;;;;;;;;;4896393;28;98575;-70
2021/12/04 08:52:21;;;;;;;100.00;26.58;;;;;;;;;;4896535;28;98902;-70
2021/12/04 08:54:48;;;;;;;102.10;28.70;;;;;;;;;;4895949;28;99829;-70
2021/12/04 08:57:14;;;;;;;86.80;28.63;;;;;;;;;;4895885;28;99112;-70
2021/12/04 08:59:40;;;;;;;76.40;25.58;;;;;;;;;;4899025;28;100383;-69
2021/12/04 09:02:07;;;;;;;74.72;26.30;;;;;;;;;;4896168;28;98529;-70
2021/12/04 09:04:35;;;;;;;83.60;26.90;;;;;;;;;;4895679;28;99968;-69
2021/12/04 09:07:03;;;;;;;75.88;26.88;;;;;;;;;;4878617;28;100774;-69
2021/12/04 09:09:30;;;;;;;83.05;27.55;;;;;;;;;;4895974;28;98468;-70
2021/12/04 09:12:16;;;;;;;75.60;27.20;;;;;;;;;;4894706;28;99515;-69
2021/12/04 09:14:43;;;;;;;73.88;26.70;;;;;;;;;;4895986;28;99023;-71
2021/12/04 09:17:11;;;;;;;65.82;26.27;;;;;;;;;;4895575;28;98447;-71
2021/12/04 09:19:37;;;;;;;73.47;26.42;;;;;;;;;;4898843;28;99781;-69
2021/12/04 09:22:05;;;;;;;69.43;26.20;;;;;;;;;;4878029;28;99120;-72
2021/12/04 09:24:56;;;;;;;72.03;26.55;;;;;;;;;;4895643;28;100393;-71
2021/12/04 09:30:09;;;;;;;73.45;25.02;;;;;;;;;;4895925;28;98436;-71
2021/12/04 09:59:13;;;;;;;68.60;25.30;;;;;;;;;;4896178;28;99519;-71
2021/12/04 10:05:50;;;;;;;62.58;23.33;;;;;;;;;;4894888;28;99467;-71
2021/12/04 10:18:32;;;;;;;65.78;23.50;;;;;;;;;;4894689;28;99756;-71
2021/12/04 10:24:02;;;;;;;64.95;22.95;;;;;;;;;;4894177;28;99977;-70
2021/12/04 10:34:34;;;;;;;60.08;21.38;;;;;;;;;;4895351;28;97644;-70
2021/12/04 10:37:27;;;;;;;57.40;21.65;;;;;;;;;;4894758;28;99111;-70
2021/12/04 10:40:12;;;;;;;55.58;21.35;;;;;;;;;;4894396;28;99706;-71
2021/12/04 10:42:40;;;;;;;63.33;22.00;;;;;;;;;;4894077;28;99216;-71
2021/12/04 10:45:06;;;;;;;66.10;23.58;;;;;;;;;;4894800;28;100422;-70
2021/12/04 10:47:32;;;;;;;65.05;23.48;;;;;;;;;;4894434;28;99761;-71
2021/12/04 10:52:57;;;;;;;61.88;23.48;;;;;;;;;;4894312;28;99597;-71
2021/12/04 10:55:38;;;;;;;65.63;23.33;;;;;;;;;;4897735;28;99129;-71
2021/12/04 11:03:05;;;;;;;67.38;23.83;;;;;;;;;;4894320;28;98438;-70
2021/12/04 11:22:30;;;;;;;63.75;21.92;;;;;;;;;;4894173;28;99727;-70
2021/12/04 11:25:28;;;;;;;66.55;23.13;;;;;;;;;;4894017;28;98387;-71
2021/12/04 11:28:13;;;;;;;65.38;22.00;;;;;;;;;;4894599;28;99543;-70
2021/12/04 11:36:24;;;;;;;57.03;20.63;;;;;;;;;;4895053;28;99481;-70
2021/12/04 11:44:29;;;;;;;55.58;21.33;;;;;;;;;;4854952;28;98848;-71
2021/12/04 11:46:56;;;;;;;61.47;21.90;;;;;;;;;;4897165;28;98399;-71
2021/12/04 11:49:26;;;;;;;60.75;21.55;;;;;;;;;;4897146;28;99490;-71
2021/12/04 11:51:58;;;;;;;61.17;21.67;;;;;;;;;;4897283;28;99910;-70
2021/12/04 11:54:24;;;;;;;;;;;;;;;;;;4898056;28;97693;-71
2021/12/04 11:57:05;;;;;;;53.10;21.48;;;;;;;;;;4897193;28;127812;-70
2021/12/04 11:59:32;;;;;;;50.97;21.15;;;;;;;;;;4896734;28;99038;-71
2021/12/04 12:02:00;;;;;;;50.33;21.35;;;;;;;;;;4896537;28;99197;-71
2021/12/04 12:04:35;;;;;;;64.25;23.25;;;;;;;;;;4899675;28;100467;-70
2021/12/04 12:07:20;;;;;;;56.65;23.10;;;;;;;;;;4897045;28;98415;-70
2021/12/04 12:09:47;;;;;;;51.92;23.67;;;;;;;;;;4897128;28;98967;-70
2021/12/04 12:12:16;;;;;;;58.95;23.50;;;;;;;;;;4896236;28;99817;-70
2021/12/04 12:14:49;;;;;;;58.80;23.45;;;;;;;;;;4897006;28;98497;-70
2021/12/04 12:17:28;;;;;;;57.33;24.20;;;;;;;;;;4896748;28;99829;-71
2021/12/04 12:19:55;;;;;;;72.18;25.13;;;;;;;;;;4897218;28;98734;-71
2021/12/04 12:25:24;;;;;;;61.97;22.42;;;;;;;;;;4896715;28;99471;-70
2021/12/04 12:31:43;;;;;;;43.25;20.20;;;;;;;;;;4899081;28;100531;-71
2021/12/04 12:33:44;;;;;;;49.25;21.33;;;;;;;;;;4896030;28;99204;-70
2021/12/04 12:36:15;;;;;;;43.83;20.35;;;;;;;;;;4896583;28;98373;-70
2021/12/04 12:38:51;;;;;;;44.28;21.85;;;;;;;;;;4896532;28;99637;-70
2021/12/04 12:41:29;;;;;;;48.70;21.92;;;;;;;;;;4896076;28;100006;-71
2021/12/04 12:44:04;;;;;;;50.50;23.05;;;;;;;;;;4896432;28;98421;-70
2021/12/04 12:46:37;;;;;;;49.33;21.88;;;;;;;;;;4896803;28;99487;-70
2021/12/04 12:49:04;;;;;;;52.38;22.80;;;;;;;;;;4896384;28;100062;-70
2021/12/04 12:51:33;;;;;;;50.95;23.13;;;;;;;;;;4899646;28;98447;-71
2021/12/04 12:54:01;;;;;;;54.58;23.38;;;;;;;;;;4895020;28;100579;-70
2021/12/04 12:56:30;;;;;;;55.50;23.48;;;;;;;;;;4896019;28;98454;-70
2021/12/04 12:59:07;;;;;;;54.45;23.80;;;;;;;;;;4896010;28;100810;-70
2021/12/04 13:12:57;;;;;;;55.42;25.02;;;;;;;;;;4896398;28;97649;-70
2021/12/04 13:15:29;;;;;;;49.67;23.85;;;;;;;;;;4898920;28;98347;-71
2021/12/04 13:17:56;;;;;;;50.83;23.45;;;;;;;;;;4895966;28;98805;-71
2021/12/04 13:20:23;;;;;;;50.20;24.70;;;;;;;;;;4895775;28;99583;-70
2021/12/04 13:22:49;;;;;;;45.85;23.60;;;;;;;;;;4895600;28;99631;-71
2021/12/04 13:25:15;;;;;;;48.85;23.50;;;;;;;;;;4895541;28;98458;-70
2021/12/04 13:30:10;;;;;;;53.33;24.98;;;;;;;;;;4895762;28;99738;-70
2021/12/04 13:32:38;;;;;;;48.97;24.60;;;;;;;;;;4895581;28;98515;-70
2021/12/04 13:35:07;;;;;;;56.85;25.30;;;;;;;;;;4895841;28;99326;-70
2021/12/04 13:37:35;;;;;;;54.50;25.17;;;;;;;;;;4898883;28;98979;-71
2021/12/04 13:40:05;;;;;;;58.45;25.25;;;;;;;;;;4895558;28;98812;-71
2021/12/04 13:42:33;;;;;;;53.30;26.90;;;;;;;;;;4895413;28;99550;-70
2021/12/04 13:44:59;;;;;;;54.83;25.98;;;;;;;;;;4895133;28;99153;-70
2021/12/04 13:47:26;;;;;;;54.67;26.95;;;;;;;;;;4895391;28;100718;-70
2021/12/04 13:50:06;;;;;;;55.35;26.27;;;;;;;;;;4875828;28;99764;-70
2021/12/04 13:52:33;;;;;;;51.35;25.90;;;;;;;;;;4876051;28;98456;-70
2021/12/04 13:55:06;;;;;;;47.35;24.90;;;;;;;;;;4876269;28;98995;-70
2021/12/04 13:57:37;;;;;;;54.47;26.38;;;;;;;;;;4879172;28;99891;-70
2021/12/04 14:00:04;;;;;;;44.50;22.60;;;;;;;;;;4875488;28;99646;-70
2021/12/04 14:02:31;;;;;;;47.38;23.70;;;;;;;;;;4876577;28;98525;-70
2021/12/04 14:04:58;;;;;;;49.83;23.75;;;;;;;;;;4875878;28;98372;-71
2021/12/04 14:07:26;;;;;;;45.95;24.42;;;;;;;;;;4877448;28;99335;-70
2021/12/04 14:09:52;;;;;;;45.95;23.27;;;;;;;;;;4894100;28;100075;-70
2021/12/04 14:12:19;;;;;;;40.30;21.63;;;;;;;;;;4887924;28;98448;-70
2021/12/04 14:14:45;;;;;;;38.22;20.98;;;;;;;;;;4875967;28;99488;-70
2021/12/04 14:17:14;;;;;;;39.63;20.92;;;;;;;;;;4887121;28;99786;-70
2021/12/04 14:19:40;;;;;;;39.60;20.95;;;;;;;;;;4898263;28;98302;-71
2021/12/04 14:22:15;;;;;;;39.05;20.25;;;;;;;;;;4894735;28;99319;-72
2021/12/04 14:24:42;;;;;;;29.85;19.05;;;;;;;;;;4894864;28;98362;-70
2021/12/04 14:27:20;;;;;;;30.02;18.23;;;;;;;;;;4895594;28;100065;-70
2021/12/04 14:29:52;;;;;;;35.33;18.73;;;;;;;;;;4894419;28;99667;-73
2021/12/04 14:32:24;;;;;;;28.75;18.20;;;;;;;;;;4894961;28;98322;-71
2021/12/04 14:34:54;;;;;;;28.52;17.02;;;;;;;;;;4894176;28;99418;-71
2021/12/04 14:37:21;;;;;;;29.30;17.40;;;;;;;;;;4894417;28;99665;-72
2021/12/04 14:39:48;;;;;;;31.65;16.83;;;;;;;;;;4894760;28;98342;-72
2021/12/04 14:42:17;;;;;;;26.70;16.05;;;;;;;;;;4897550;28;99175;-72
2021/12/04 14:44:48;;;;;;;26.73;16.45;;;;;;;;;;4894555;28;98477;-72
2021/12/04 14:47:15;;;;;;;27.13;16.38;;;;;;;;;;4894486;28;99550;-73
2021/12/04 14:49:45;;;;;;;29.02;16.45;;;;;;;;;;4894307;28;99825;-73
2021/12/04 14:52:18;;;;;;;28.67;16.85;;;;;;;;;;4895044;28;97704;-71
2021/12/04 14:54:45;;;;;;;27.63;16.15;;;;;;;;;;4894423;28;98969;-72
2021/12/04 14:57:15;;;;;;;32.35;18.25;;;;;;;;;;4894080;28;99679;-71
2021/12/04 14:59:42;;;;;;;24.27;14.73;;;;;;;;;;4894089;28;100098;-71
2021/12/04 15:02:20;;;;;;;22.70;15.13;;;;;;;;;;4893592;28;100179;-70
2021/12/04 15:04:47;;;;;;;21.67;14.88;;;;;;;;;;4897407;28;99360;-71
2021/12/04 15:07:21;;;;;;;22.65;12.75;;;;;;;;;;4894495;28;99653;-71
2021/12/04 15:09:47;;;;;;;20.02;10.73;;;;;;;;;;4893869;28;99892;-71
2021/12/04 15:12:24;;;;;;;19.90;10.43;;;;;;;;;;4896997;28;98387;-71
2021/12/04 15:14:54;;;;;;;20.13;11.40;;;;;;;;;;4879001;28;99752;-71
2021/12/04 15:17:20;;;;;;;18.40;10.50;;;;;;;;;;4879059;28;98911;-71
2021/12/04 15:19:48;;;;;;;15.80;9.88;;;;;;;;;;4878822;28;98646;-72
2021/12/04 15:22:16;;;;;;;19.30;10.23;;;;;;;;;;4879399;28;99364;-74
2021/12/04 15:24:43;;;;;;;15.13;8.52;;;;;;;;;;4877999;28;100332;-74
2021/12/04 15:27:18;;;;;;;11.35;6.80;;;;;;;;;;4882724;28;98355;-71
2021/12/04 15:29:46;;;;;;;12.93;6.68;;;;;;;;;;4879021;28;99956;-71
2021/12/04 15:32:14;;;;;;;10.38;6.75;;;;;;;;;;4879481;28;98662;-70
2021/12/04 15:34:52;;;;;;;8.25;5.93;;;;;;;;;;4878709;28;99308;-71
2021/12/04 15:37:27;;;;;;;12.38;6.90;;;;;;;;;;4878796;28;99641;-73
2021/12/04 15:39:54;;;;;;;7.32;4.93;;;;;;;;;;4879352;28;98395;-73
2021/12/04 15:42:28;;;;;;;9.75;4.63;;;;;;;;;;4862656;28;100485;-72
2021/12/04 15:45:07;;;;;;;7.68;4.40;;;;;;;;;;4878494;28;99655;-72
2021/12/04 15:50:26;;;;;;;9.27;5.15;;;;;;;;;;4881189;28;100330;-71
2021/12/04 15:53:07;;;;;;;6.90;4.28;;;;;;;;;;4879094;28;98480;-73
2021/12/04 15:55:56;;;;;;;12.30;5.73;;;;;;;;;;4878749;28;99384;-73
2021/12/04 15:58:23;;;;;;;10.48;5.20;;;;;;;;;;4878506;28;99293;-71
2021/12/04 16:00:54;;;;;;;14.40;6.10;;;;;;;;;;4878696;28;98446;-70
2021/12/04 16:03:22;;;;;;;11.00;6.00;;;;;;;;;;4878737;28;99580;-72
2021/12/04 16:05:51;;;;;;;12.82;6.45;;;;;;;;;;4878413;28;99269;-72
2021/12/04 16:08:19;;;;;;;15.63;7.30;;;;;;;;;;4879315;28;97650;-72
2021/12/04 16:11:08;;;;;;;22.02;10.27;;;;;;;;;;4881786;28;99024;-73
2021/12/04 16:13:36;;;;;;;24.95;14.57;;;;;;;;;;4887870;28;98435;-73
2021/12/04 16:16:11;;;;;;;25.17;14.15;;;;;;;;;;4896791;28;99525;-74
2021/12/04 16:18:38;;;;;;;17.85;10.52;;;;;;;;;;4879666;28;99531;-73
2021/12/04 16:21:05;;;;;;;19.00;9.70;;;;;;;;;;4896898;28;98372;-72
2021/12/04 16:23:32;;;;;;;22.55;10.25;;;;;;;;;;4897465;28;98474;-72
2021/12/04 16:26:00;;;;;;;25.38;13.05;;;;;;;;;;4896419;28;99788;-74
2021/12/04 16:31:09;;;;;;;27.98;13.88;;;;;;;;;;4896461;28;99421;-73
2021/12/04 16:33:45;;;;;;;27.23;14.80;;;;;;;;;;4900084;28;98938;-74
2021/12/04 16:39:10;;;;;;;26.38;14.57;;;;;;;;;;4896073;28;99090;-75
2021/12/04 16:41:38;;;;;;;26.38;13.07;;;;;;;;;;4896075;28;99193;-75
2021/12/04 16:44:06;;;;;;;24.30;11.45;;;;;;;;;;4896493;28;99980;-76
2021/12/04 16:46:36;;;;;;;24.40;10.48;;;;;;;;;;4896385;28;99766;-75
2021/12/04 16:49:05;;;;;;;21.20;10.95;;;;;;;;;;4896517;28;98426;-74
2021/12/04 16:57:08;;;;;;;29.85;12.13;;;;;;;;;;4899494;28;98391;-71
2021/12/04 16:59:35;;;;;;;27.02;10.57;;;;;;;;;;4896405;28;99003;-71
2021/12/04 17:02:04;;;;;;;27.75;10.73;;;;;;;;;;4895174;28;98931;-72
2021/12/04 17:04:32;;;;;;;26.27;10.02;;;;;;;;;;4896336;28;99449;-72
2021/12/04 17:07:03;;;;;;;19.60;9.48;;;;;;;;;;4895225;28;100354;-73
2021/12/04 17:09:29;;;;;;;17.90;8.75;;;;;;;;;;4887718;28;98439;-73
2021/12/04 17:11:56;;;;;;;17.88;8.05;;;;;;;;;;4877708;28;98953;-72
2021/12/04 17:14:25;;;;;;;14.85;8.10;;;;;;;;;;4860785;28;99838;-71
2021/12/04 17:16:52;;;;;;;19.15;7.57;;;;;;;;;;4858259;29;98469;-72
2021/12/04 17:19:20;;;;;;;17.70;7.47;;;;;;;;;;4872617;28;99534;-73
2021/12/04 17:21:47;;;;;;;19.58;8.18;;;;;;;;;;4877677;28;98369;-72
2021/12/04 17:24:14;;;;;;;14.75;8.07;;;;;;;;;;4878034;28;99431;-71
2021/12/04 17:26:42;;;;;;;17.15;8.20;;;;;;;;;;4876774;28;100015;-72
2021/12/04 17:29:11;;;;;;;27.70;9.52;;;;;;;;;;4877620;28;98689;-72
2021/12/04 17:31:39;;;;;;;18.80;7.75;;;;;;;;;;4876744;28;99261;-72
2021/12/04 17:34:06;;;;;;;14.70;6.90;;;;;;;;;;4876034;28;100188;-72
2021/12/04 17:36:33;;;;;;;14.35;7.68;;;;;;;;;;4877128;28;98504;-73